Time;durP1;ratioP1;P1;durP2;ratioP2;P2;SDS_P1;SDS_P2;PMS_P1;PMS_P2;Temp;Humidity;BMP_temperature;BMP_pressure;BME280_temperature;BME280_humidity;BME280_pressure;Samples;Min_cycle;Max_cycle;Signal;HPM_P1;HPM_P2
2022/05/13 00:01:50;;;;;;;1.38;0.98;;;;;;;12.17;69.53;97973.72;5016641;28;20084;-59
2022/05/13 00:04:16;;;;;;;5.20;1.20;;;;;;;12.16;70.27;97976.38;5031856;28;20483;-59
2022/05/13 00:06:41;;;;;;;2.58;1.00;;;;;;;12.20;69.69;97981.31;5011940;28;20046;-59
2022/05/13 00:09:08;;;;;;;2.08;1.10;;;;;;;12.03;69.86;97961.50;5041755;28;20045;-58
2022/05/13 00:11:33;;;;;;;1.50;0.85;;;;;;;12.04;69.43;97980.47;5030978;28;20069;-60
2022/05/13 00:13:59;;;;;;;0.90;0.90;;;;;;;12.14;71.59;97986.00;5018478;28;20022;-60
2022/05/13 00:16:24;;;;;;;2.03;1.10;;;;;;;12.17;70.60;97998.81;5032210;28;20026;-59
2022/05/13 00:18:50;;;;;;;1.17;1.08;;;;;;;12.20;70.26;97985.66;5051887;28;20056;-59
2022/05/13 00:21:16;;;;;;;2.25;1.00;;;;;;;12.29;69.96;98000.72;5051339;28;20526;-60
2022/05/13 00:23:41;;;;;;;2.75;1.30;;;;;;;12.29;70.73;97992.94;5051503;28;20367;-59
2022/05/13 00:26:07;;;;;;;1.15;1.00;;;;;;;12.30;70.42;98004.16;5038516;28;20367;-59
2022/05/13 00:28:32;;;;;;;1.98;1.20;;;;;;;12.30;70.96;98001.56;5015229;28;20030;-60
2022/05/13 00:30:59;;;;;;;2.00;1.17;;;;;;;12.33;71.33;98004.81;5045092;28;20061;-60
2022/05/13 00:33:25;;;;;;;1.30;1.10;;;;;;;12.41;70.76;98004.38;5031807;28;20057;-59
2022/05/13 00:35:51;;;;;;;1.27;1.10;;;;;;;12.29;71.61;97999.91;5001221;28;20403;-59
2022/05/13 00:38:17;;;;;;;1.52;1.25;;;;;;;12.30;72.32;97999.81;5011608;28;20026;-59
2022/05/13 00:40:44;;;;;;;1.30;1.20;;;;;;;12.04;71.28;97942.41;5026108;28;20550;-59
2022/05/13 00:43:12;;;;;;;2.00;1.33;;;;;;;12.29;71.64;98015.47;5011836;28;20069;-60
2022/05/13 00:45:38;;;;;;;1.20;1.10;;;;;;;12.39;72.02;97996.69;5011733;28;20033;-60
2022/05/13 00:48:05;;;;;;;2.08;1.13;;;;;;;12.42;71.18;98003.47;5011590;28;20033;-60
2022/05/13 00:50:32;;;;;;;1.13;1.00;;;;;;;12.36;71.89;98015.03;5031170;28;20025;-60
2022/05/13 00:52:58;;;;;;;1.33;1.13;;;;;;;12.43;71.99;98005.97;5047788;28;20770;-59
2022/05/13 00:55:44;;;;;;;1.77;1.40;;;;;;;12.38;72.15;98001.97;5030903;28;20032;-58
2022/05/13 00:58:17;;;;;;;1.10;1.00;;;;;;;12.36;71.22;98012.44;5012736;28;20398;-58
2022/05/13 01:00:43;;;;;;;1.42;1.33;;;;;;;12.36;72.58;98022.81;5053766;28;20052;-59
2022/05/13 01:03:11;;;;;;;4.35;1.48;;;;;;;12.36;71.27;98009.84;5025096;28;20128;-59
2022/05/13 01:05:37;;;;;;;3.30;1.63;;;;;;;12.39;71.47;98014.03;5015018;28;20048;-59
2022/05/13 01:08:06;;;;;;;2.88;1.17;;;;;;;12.43;71.68;98018.97;5026801;28;20382;-60
2022/05/13 01:10:33;;;;;;;2.78;1.45;;;;;;;12.38;70.93;98033.94;5053296;28;20466;-59
2022/05/13 01:13:04;;;;;;;1.30;1.20;;;;;;;12.33;70.63;98029.97;5035045;28;20061;-60
2022/05/13 01:15:34;;;;;;;1.77;1.17;;;;;;;12.25;70.98;98032.97;5016737;28;20095;-59
2022/05/13 01:18:06;;;;;;;1.52;1.00;;;;;;;12.23;71.21;98043.44;5014897;28;20018;-59
2022/05/13 01:20:52;;;;;;;1.85;1.30;;;;;;;12.33;70.39;98037.75;5014617;28;20030;-60
2022/05/13 01:23:24;;;;;;;1.67;1.10;;;;;;;12.21;71.20;97995.97;5028950;28;20038;-59
2022/05/13 01:26:01;;;;;;;1.33;1.23;;;;;;;12.20;70.27;98007.28;5034374;28;20025;-60
2022/05/13 01:28:34;;;;;;;6.07;1.20;;;;;;;12.48;70.29;98033.44;5020145;28;20030;-59
2022/05/13 01:31:04;;;;;;;2.10;1.20;;;;;;;12.51;70.99;98060.09;5015965;28;20034;-60
2022/05/13 01:33:29;;;;;;;1.30;1.20;;;;;;;12.36;69.74;98042.75;5024589;28;20471;-60
2022/05/13 01:35:58;;;;;;;2.55;1.38;;;;;;;12.08;69.74;98000.16;5033893;28;20048;-60
2022/05/13 01:38:28;;;;;;;2.67;1.20;;;;;;;12.00;69.73;97984.16;5042903;28;20089;-59
2022/05/13 01:40:53;;;;;;;4.43;1.35;;;;;;;12.43;70.24;98038.91;5045490;28;20030;-59
2022/05/13 01:43:20;;;;;;;3.85;1.30;;;;;;;12.38;69.15;98039.13;5014220;28;20026;-59
2022/05/13 01:45:46;;;;;;;4.75;1.42;;;;;;;12.30;70.27;98033.56;5014234;28;20149;-60
2022/05/13 01:48:12;;;;;;;2.17;1.30;;;;;;;12.50;68.75;98037.63;5014236;28;20072;-60
2022/05/13 01:50:39;;;;;;;2.03;1.25;;;;;;;12.41;69.11;98038.13;5014241;28;20501;-59
2022/05/13 01:53:06;;;;;;;3.20;1.38;;;;;;;12.08;69.62;97997.56;5015772;28;20483;-60
2022/05/13 01:55:31;;;;;;;4.38;1.50;;;;;;;12.42;69.67;98056.22;5033135;28;20140;-59
2022/05/13 01:57:57;;;;;;;1.30;1.20;;;;;;;12.23;68.82;98024.44;5014464;28;20034;-59
2022/05/13 02:00:23;;;;;;;2.40;1.30;;;;;;;12.36;69.25;98048.78;5013947;28;20056;-60
2022/05/13 02:05:33;;;;;;;1.77;1.45;;;;;;;12.29;68.90;98039.66;5021570;28;20089;-60
2022/05/13 02:07:59;;;;;;;3.85;1.60;;;;;;;12.22;69.58;98052.13;5009362;28;20119;-58
2022/05/13 02:10:25;;;;;;;1.48;1.02;;;;;;;12.26;68.64;98052.81;5011690;28;20050;-58
2022/05/13 02:12:51;;;;;;;2.70;1.15;;;;;;;12.26;68.38;98058.84;5052846;28;20036;-58
2022/05/13 02:15:17;;;;;;;3.58;1.40;;;;;;;12.38;69.08;98064.28;5021288;28;20037;-59
2022/05/13 02:17:43;;;;;;;3.65;1.10;;;;;;;12.39;67.98;98060.75;5034790;28;20246;-60
2022/05/13 02:20:10;;;;;;;2.05;0.90;;;;;;;12.43;68.14;98063.09;5053097;28;20029;-60
2022/05/13 02:22:36;;;;;;;2.55;1.10;;;;;;;12.44;68.15;98053.53;5053173;28;20091;-59
2022/05/13 02:25:03;;;;;;;3.95;1.20;;;;;;;12.11;68.47;98067.44;5053158;28;20122;-60
2022/05/13 02:27:28;;;;;;;1.58;1.20;;;;;;;12.25;67.95;98077.91;5019201;28;20554;-60
2022/05/13 02:29:54;;;;;;;2.65;1.40;;;;;;;12.26;67.49;98079.59;5037614;28;20025;-61
2022/05/13 02:32:20;;;;;;;3.33;1.40;;;;;;;12.32;67.33;98080.19;5042429;28;20502;-61
2022/05/13 02:34:46;;;;;;;2.95;1.05;;;;;;;12.32;66.60;98086.22;5028935;28;20091;-59
2022/05/13 02:37:12;;;;;;;2.33;1.20;;;;;;;12.27;65.88;98072.66;5032966;28;20025;-58
2022/05/13 02:39:37;;;;;;;1.85;1.30;;;;;;;12.44;65.79;98079.50;5051390;28;20029;-59
2022/05/13 02:42:03;;;;;;;1.67;1.20;;;;;;;12.35;65.85;98083.44;5052694;28;20076;-59
2022/05/13 02:44:29;;;;;;;1.80;1.23;;;;;;;12.32;66.10;98085.38;5052906;28;20036;-60
2022/05/13 02:46:54;;;;;;;5.55;1.20;;;;;;;12.52;65.31;98082.53;5044929;28;20033;-59
2022/05/13 02:49:21;;;;;;;2.75;1.27;;;;;;;12.48;65.43;98090.56;5013337;28;20092;-60
2022/05/13 02:51:48;;;;;;;2.08;1.20;;;;;;;12.88;64.92;98090.94;5012934;28;20036;-60
2022/05/13 02:54:14;;;;;;;3.40;1.48;;;;;;;12.80;64.38;98093.13;5026359;28;20120;-60
2022/05/13 02:56:40;;;;;;;5.38;1.80;;;;;;;12.63;64.52;98104.44;5043058;28;20112;-61
2022/05/13 02:59:06;;;;;;;4.50;1.23;;;;;;;12.52;64.67;98103.28;5052499;28;20060;-60
2022/05/13 03:01:32;;;;;;;2.08;1.27;;;;;;;12.71;64.85;98102.28;5032798;28;20028;-60
2022/05/13 03:03:58;;;;;;;4.53;1.17;;;;;;;12.63;64.04;98102.72;5012986;28;20113;-60
2022/05/13 03:06:24;;;;;;;1.65;1.30;;;;;;;12.40;64.29;98089.22;5012566;28;20128;-61
2022/05/13 03:08:50;;;;;;;4.22;1.58;;;;;;;12.37;64.07;98101.53;5012340;28;20101;-61
2022/05/13 03:11:16;;;;;;;3.72;1.25;;;;;;;12.59;64.16;98111.59;5012571;28;20052;-61
2022/05/13 03:13:43;;;;;;;2.00;1.15;;;;;;;12.60;63.87;98116.69;5012638;28;20506;-60
2022/05/13 03:16:14;;;;;;;3.28;0.90;;;;;;;12.38;63.22;98105.81;5012872;28;20036;-59
2022/05/13 03:18:40;;;;;;;6.13;1.23;;;;;;;12.56;62.51;98115.19;5030607;28;20033;-60
2022/05/13 03:21:08;;;;;;;2.40;1.15;;;;;;;12.34;64.47;98115.53;5018618;28;20434;-61
2022/05/13 03:23:33;;;;;;;3.92;1.33;;;;;;;12.47;64.03;98127.84;5021345;28;20034;-60
2022/05/13 03:25:59;;;;;;;2.45;1.10;;;;;;;12.27;63.46;98124.56;5032377;28;20033;-60
2022/05/13 03:28:25;;;;;;;2.55;1.30;;;;;;;12.37;64.18;98124.91;5027168;28;20164;-60
2022/05/13 03:30:51;;;;;;;5.10;1.13;;;;;;;12.28;65.00;98148.78;5051655;28;20063;-60
2022/05/13 03:33:18;;;;;;;3.03;1.20;;;;;;;11.83;62.42;98081.88;5037346;28;20021;-61
2022/05/13 03:35:44;;;;;;;3.00;1.08;;;;;;;12.18;63.04;98125.88;5021864;28;20475;-60
2022/05/13 03:38:10;;;;;;;3.35;1.23;;;;;;;12.20;63.45;98124.06;5012240;28;20025;-60
2022/05/13 03:40:36;;;;;;;3.63;1.15;;;;;;;12.24;64.07;98135.97;5012229;28;20096;-60
2022/05/13 03:43:04;;;;;;;4.45;1.33;;;;;;;11.90;63.56;98129.09;5030002;28;20017;-60
2022/05/13 03:45:32;;;;;;;2.83;1.10;;;;;;;12.28;65.10;98136.63;5048573;28;20032;-60
2022/05/13 03:47:59;;;;;;;3.92;1.27;;;;;;;12.24;62.71;98130.78;5027458;28;20038;-61
2022/05/13 03:50:25;;;;;;;4.15;1.30;;;;;;;12.21;63.38;98135.28;5012548;28;20097;-60
2022/05/13 03:52:52;;;;;;;2.17;1.23;;;;;;;12.30;62.83;98133.94;5014296;28;20026;-59
2022/05/13 03:55:18;;;;;;;3.15;1.10;;;;;;;12.45;63.36;98135.72;5031994;28;20029;-60
2022/05/13 03:57:43;;;;;;;6.38;1.50;;;;;;;12.52;63.34;98150.03;5013574;28;20026;-60
2022/05/13 04:00:10;;;;;;;1.88;1.00;;;;;;;12.44;62.77;98141.81;5012277;28;20033;-60
2022/05/13 04:02:37;;;;;;;4.05;1.20;;;;;;;12.57;62.95;98140.25;5029882;28;20040;-59
2022/05/13 04:10:33;;;;;;;4.72;1.33;;;;;;;12.70;61.27;98150.78;5031718;28;20132;-60
2022/05/13 04:18:27;;;;;;;2.75;1.45;;;;;;;12.83;62.70;98161.34;5035475;28;20061;-60
2022/05/13 04:20:52;;;;;;;6.35;1.98;;;;;;;12.94;63.14;98153.78;5002595;28;20490;-59
2022/05/13 04:23:21;;;;;;;3.25;1.23;;;;;;;12.89;62.52;98168.78;5024388;28;20032;-60
2022/05/13 04:25:47;;;;;;;5.78;1.40;;;;;;;12.92;61.28;98167.78;5033020;28;20049;-61
2022/05/13 04:28:13;;;;;;;1.20;1.10;;;;;;;12.94;61.29;98165.97;5024915;28;20514;-60
2022/05/13 04:30:38;;;;;;;2.22;1.10;;;;;;;13.03;61.30;98164.59;5049000;28;20025;-60
2022/05/13 04:33:04;;;;;;;2.40;1.00;;;;;;;13.11;60.18;98157.19;5039423;28;20071;-62
2022/05/13 04:35:30;;;;;;;4.07;1.48;;;;;;;13.02;62.22;98152.53;5041772;28;20390;-60
2022/05/13 04:37:56;;;;;;;4.35;1.20;;;;;;;13.69;59.16;98153.00;5051479;28;20029;-60
2022/05/13 04:40:22;;;;;;;1.27;1.10;;;;;;;13.76;59.00;98164.72;5035174;28;20471;-61
2022/05/13 04:42:50;;;;;;;2.35;1.45;;;;;;;13.89;60.06;98172.66;5030866;28;20042;-61
2022/05/13 04:45:28;;;;;;;3.53;1.48;;;;;;;13.23;59.79;98120.09;5020831;28;20533;-61
2022/05/13 04:48:16;;;;;;;2.25;1.20;;;;;;;13.56;58.95;98158.09;5037006;28;20032;-61
2022/05/13 04:50:43;;;;;;;6.50;1.70;;;;;;;14.47;56.42;98157.03;5036153;28;20368;-60
2022/05/13 04:53:10;;;;;;;3.80;1.23;;;;;;;14.32;57.05;98167.47;5017854;28;20028;-60
2022/05/13 04:55:36;;;;;;;6.30;1.25;;;;;;;15.16;55.07;98154.44;5034644;28;20052;-63
2022/05/13 04:58:03;;;;;;;3.92;1.40;;;;;;;16.23;52.60;98169.06;5014963;28;20080;-60
2022/05/13 05:00:30;;;;;;;4.20;1.33;;;;;;;15.21;52.95;98160.19;5014768;28;20026;-60
2022/05/13 05:02:56;;;;;;;3.70;1.42;;;;;;;15.34;55.02;98170.66;5036779;28;20021;-60
2022/05/13 05:05:22;;;;;;;4.93;1.38;;;;;;;15.61;54.04;98167.16;5041435;28;20100;-60
2022/05/13 05:07:48;;;;;;;3.92;1.35;;;;;;;15.30;54.07;98175.22;5014807;28;20045;-61
2022/05/13 05:10:14;;;;;;;3.08;1.08;;;;;;;14.98;54.14;98185.97;5014975;28;20050;-60
2022/05/13 05:12:40;;;;;;;2.50;1.15;;;;;;;15.30;53.31;98188.25;5048803;28;20094;-60
2022/05/13 05:15:07;;;;;;;3.20;1.25;;;;;;;14.93;53.16;98143.72;5029223;28;20026;-60
2022/05/13 05:17:33;;;;;;;4.65;1.13;;;;;;;14.83;53.17;98192.97;5029292;28;20036;-61
2022/05/13 05:19:59;;;;;;;6.47;1.30;;;;;;;14.39;53.52;98187.91;5050512;28;20026;-61
2022/05/13 05:22:24;;;;;;;3.67;1.30;;;;;;;14.77;52.99;98179.53;5034565;28;20463;-60
2022/05/13 05:24:50;;;;;;;6.45;1.25;;;;;;;15.45;52.05;98183.84;5033968;28;20475;-60
2022/05/13 05:27:15;;;;;;;3.38;1.10;;;;;;;14.91;53.06;98195.13;5038136;28;20026;-59
2022/05/13 05:29:43;;;;;;;4.38;1.27;;;;;;;15.05;53.58;98194.25;5034085;28;20041;-60
2022/05/13 05:32:09;;;;;;;4.30;1.50;;;;;;;14.70;53.56;98191.25;5033904;28;20048;-59
2022/05/13 05:34:35;;;;;;;2.03;1.17;;;;;;;14.95;52.61;98191.38;5033249;28;20029;-60
2022/05/13 05:37:00;;;;;;;2.67;1.05;;;;;;;15.09;53.48;98203.56;5032689;28;20590;-60
2022/05/13 05:39:26;;;;;;;3.15;1.48;;;;;;;15.42;52.78;98183.19;5031793;28;20025;-60
2022/05/13 05:41:52;;;;;;;2.17;1.23;;;;;;;16.14;50.73;98201.06;5034214;28;20029;-60
2022/05/13 05:44:17;;;;;;;5.80;1.40;;;;;;;15.62;51.20;98193.16;5030600;28;20430;-61
2022/05/13 05:46:43;;;;;;;3.17;1.25;;;;;;;15.55;51.71;98194.50;5032143;28;20022;-61
2022/05/13 05:49:10;;;;;;;2.90;1.30;;;;;;;15.80;51.88;98195.50;5032137;28;20025;-60
2022/05/13 05:51:37;;;;;;;2.35;1.50;;;;;;;15.41;53.53;98208.44;5032729;28;20025;-60
2022/05/13 05:59:32;;;;;;;4.35;1.52;;;;;;;15.21;51.57;98207.13;5034331;28;20364;-60
2022/05/13 06:01:58;;;;;;;3.40;1.10;;;;;;;15.14;52.80;98211.06;5031237;28;20080;-60
2022/05/13 06:04:24;;;;;;;4.60;1.38;;;;;;;15.44;52.52;98202.19;5032990;28;20030;-61
2022/05/13 06:06:50;;;;;;;3.30;1.52;;;;;;;15.45;52.60;98206.47;5031452;28;20033;-60
2022/05/13 06:09:15;;;;;;;5.03;1.58;;;;;;;15.79;51.66;98215.56;5032044;28;20391;-60
2022/05/13 06:11:41;;;;;;;2.05;1.20;;;;;;;15.71;51.98;98205.56;5034578;28;20069;-61
2022/05/13 06:14:09;;;;;;;4.03;1.20;;;;;;;15.53;51.60;98207.66;5034960;28;20095;-61
2022/05/13 06:16:35;;;;;;;4.28;1.38;;;;;;;15.38;51.71;98208.66;5048441;28;20045;-60
2022/05/13 06:19:01;;;;;;;7.40;1.85;;;;;;;15.57;51.70;98208.28;5033000;28;20072;-61
2022/05/13 06:21:33;;;;;;;2.92;1.25;;;;;;;15.08;51.84;98148.88;5047982;28;20116;-61
2022/05/13 06:23:59;;;;;;;7.32;1.67;;;;;;;15.39;53.03;98225.13;5039538;28;20021;-59
2022/05/13 06:26:26;;;;;;;2.92;1.30;;;;;;;15.14;53.18;98231.94;5039768;28;20036;-60
2022/05/13 06:28:52;;;;;;;4.28;1.42;;;;;;;14.91;53.25;98233.41;5033467;28;20100;-61
2022/05/13 06:31:19;;;;;;;5.15;1.60;;;;;;;14.85;52.67;98226.78;5031492;28;20072;-61
2022/05/13 06:33:45;;;;;;;3.70;1.40;;;;;;;14.60;53.30;98217.84;5033089;28;20021;-61
2022/05/13 06:36:12;;;;;;;5.32;1.33;;;;;;;14.77;53.56;98234.25;5002484;28;20024;-62
2022/05/13 06:38:38;;;;;;;3.85;1.30;;;;;;;14.88;53.01;98221.38;5012939;28;20487;-60
2022/05/13 06:41:04;;;;;;;3.80;1.85;;;;;;;15.12;53.39;98232.03;5025036;28;20150;-59
2022/05/13 06:43:30;;;;;;;2.88;1.30;;;;;;;15.18;52.97;98238.63;5032180;28;20044;-59
2022/05/13 06:45:56;;;;;;;4.88;1.92;;;;;;;15.09;53.31;98236.59;5013444;28;20056;-59
2022/05/13 06:48:22;;;;;;;4.45;1.50;;;;;;;15.23;53.23;98246.97;5012245;28;20479;-60
2022/05/13 06:50:48;;;;;;;4.55;1.65;;;;;;;15.25;53.19;98239.91;5012293;28;20030;-58
2022/05/13 06:53:18;;;;;;;5.97;1.70;;;;;;;15.15;53.36;98223.19;5020570;28;20075;-59
2022/05/13 06:55:44;;;;;;;4.60;1.48;;;;;;;15.28;53.14;98239.72;5032318;28;20030;-58
2022/05/13 06:58:10;;;;;;;9.05;1.83;;;;;;;14.98;53.92;98242.50;5052196;28;20082;-59
2022/05/13 07:00:36;;;;;;;5.10;1.40;;;;;;;15.00;53.75;98244.06;5020714;28;20030;-58
2022/05/13 07:03:02;;;;;;;3.60;1.30;;;;;;;14.92;53.93;98238.50;5034758;28;20025;-58
2022/05/13 07:05:29;;;;;;;3.67;1.30;;;;;;;14.90;54.31;98236.94;5052241;28;20036;-58
2022/05/13 07:07:55;;;;;;;5.10;1.35;;;;;;;15.23;53.79;98235.72;5052022;28;20107;-59
2022/05/13 07:10:20;;;;;;;4.53;1.25;;;;;;;15.98;51.71;98228.19;5051794;28;20128;-60
2022/05/13 07:12:46;;;;;;;6.07;1.15;;;;;;;16.19;52.32;98228.53;5021499;28;20395;-59
2022/05/13 07:15:14;;;;;;;4.85;1.70;;;;;;;15.87;52.38;98176.69;5044736;28;20029;-59
2022/05/13 07:17:42;;;;;;;5.07;1.23;;;;;;;15.76;51.11;98228.78;5035853;28;20033;-60
2022/05/13 07:20:09;;;;;;;4.15;1.20;;;;;;;15.81;52.26;98238.94;5012575;28;20105;-60
2022/05/13 07:22:35;;;;;;;4.97;1.38;;;;;;;15.77;52.35;98243.50;5012465;28;20030;-60
2022/05/13 07:25:01;;;;;;;4.28;1.27;;;;;;;15.43;51.39;98247.47;5050289;28;20021;-60
2022/05/13 07:27:27;;;;;;;5.90;1.25;;;;;;;15.30;52.61;98253.47;5045798;28;20107;-60
2022/05/13 07:29:52;;;;;;;3.13;1.10;;;;;;;15.40;52.17;98247.69;5037037;28;20033;-60
2022/05/13 07:32:18;;;;;;;5.03;1.30;;;;;;;15.46;52.39;98252.50;5031901;28;20391;-60
2022/05/13 07:34:43;;;;;;;5.78;1.60;;;;;;;15.21;52.65;98254.06;5032333;28;20103;-60
2022/05/13 07:37:09;;;;;;;1.58;1.10;;;;;;;15.66;51.81;98245.97;5012787;28;20356;-60
2022/05/13 07:42:19;;;;;;;3.72;1.10;;;;;;;15.16;52.18;98263.94;5039239;28;20044;-61
2022/05/13 07:44:44;;;;;;;4.25;1.20;;;;;;;15.31;52.19;98251.72;5043816;28;20112;-61
2022/05/13 07:47:11;;;;;;;4.78;1.45;;;;;;;15.41;51.97;98258.00;5028582;28;20462;-60
2022/05/13 07:49:42;;;;;;;1.70;1.08;;;;;;;15.45;50.80;98250.81;5012686;28;20097;-64
2022/05/13 07:52:09;;;;;;;5.00;1.42;;;;;;;15.79;51.88;98259.94;5012818;28;20084;-61
2022/05/13 07:54:35;;;;;;;3.55;1.13;;;;;;;15.64;51.49;98246.06;5015770;28;20439;-60
2022/05/13 07:57:02;;;;;;;3.63;1.02;;;;;;;15.84;50.66;98257.00;5032779;28;20053;-63
2022/05/13 07:59:28;;;;;;;5.97;1.30;;;;;;;15.87;50.47;98249.78;5039922;28;20026;-61
2022/05/13 08:01:54;;;;;;;4.30;1.00;;;;;;;15.90;49.72;98256.59;5012382;28;20037;-62
2022/05/13 08:04:20;;;;;;;2.08;1.10;;;;;;;15.68;50.66;98244.94;5010333;28;20037;-62
2022/05/13 08:06:45;;;;;;;4.15;1.15;;;;;;;15.88;49.59;98250.66;5016399;28;20037;-61
2022/05/13 08:09:11;;;;;;;2.75;1.30;;;;;;;16.09;49.58;98244.91;5020011;28;20041;-62
2022/05/13 08:11:37;;;;;;;4.20;1.20;;;;;;;16.12;48.55;98263.84;5036321;28;20133;-62
2022/05/13 08:14:03;;;;;;;3.35;1.00;;;;;;;16.07;49.03;98245.03;5021152;28;20033;-63
2022/05/13 08:16:29;;;;;;;2.47;1.20;;;;;;;16.16;48.85;98246.16;5056296;28;20036;-61
2022/05/13 08:18:59;;;;;;;3.25;1.30;;;;;;;16.31;50.23;98245.13;5020097;28;20502;-61
2022/05/13 08:21:24;;;;;;;3.22;1.25;;;;;;;16.32;48.76;98252.03;5027722;28;20128;-60
2022/05/13 08:23:51;;;;;;;3.65;1.05;;;;;;;16.40;49.09;98243.66;5023363;28;20161;-61
2022/05/13 08:26:17;;;;;;;2.20;1.05;;;;;;;16.64;48.30;98240.31;5007250;28;20119;-61
2022/05/13 08:28:43;;;;;;;2.33;1.05;;;;;;;17.18;48.92;98244.38;5039130;28;20026;-62
2022/05/13 08:31:09;;;;;;;5.47;1.30;;;;;;;17.36;47.08;98247.44;5055469;28;20032;-61
2022/05/13 08:33:36;;;;;;;3.58;1.08;;;;;;;17.47;45.65;98249.28;5025838;28;20029;-60
2022/05/13 08:36:04;;;;;;;2.63;1.20;;;;;;;17.49;46.38;98266.53;5016189;28;20025;-62
2022/05/13 08:38:32;;;;;;;5.40;1.63;;;;;;;16.93;45.66;98227.84;5027864;28;20017;-61
2022/05/13 08:41:07;;;;;;;2.70;0.95;;;;;;;16.81;46.40;98262.66;5051921;28;20021;-61
2022/05/13 08:43:34;;;;;;;2.67;1.00;;;;;;;16.71;47.39;98241.53;5015833;28;20060;-61
2022/05/13 08:46:03;;;;;;;5.70;1.60;;;;;;;16.66;47.03;98256.69;5015727;28;20030;-62
2022/05/13 08:48:46;;;;;;;5.85;1.17;;;;;;;16.60;46.77;98203.06;5015513;28;20026;-62
2022/05/13 08:51:14;;;;;;;2.15;1.08;;;;;;;16.59;45.09;98195.34;5015807;28;20072;-59
2022/05/13 08:53:52;;;;;;;2.90;1.60;;;;;;;16.55;45.14;98210.41;5024328;28;20017;-61
2022/05/13 08:56:25;;;;;;;3.40;0.90;;;;;;;16.98;46.28;98245.81;5031208;28;20040;-62
2022/05/13 08:59:07;;;;;;;4.07;1.50;;;;;;;17.12;45.39;98219.50;5015206;28;20029;-63
2022/05/13 09:01:42;;;;;;;;;;;;;;;17.35;44.80;98251.84;5015774;28;20022;-62
2022/05/13 09:04:17;;;;;;;3.78;1.30;;;;;;;17.46;45.83;98244.97;5053760;28;20397;-61
2022/05/13 09:06:53;;;;;;;3.70;1.20;;;;;;;16.84;44.46;98204.91;5038390;28;20119;-61
2022/05/13 09:09:19;;;;;;;4.60;0.98;;;;;;;17.04;45.48;98251.41;5047183;28;20340;-61
2022/05/13 09:12:06;;;;;;;3.00;0.95;;;;;;;16.66;43.96;98201.81;5055252;28;20090;-61
2022/05/13 09:14:46;;;;;;;2.55;1.10;;;;;;;16.60;46.25;98213.53;5046999;28;20400;-61
2022/05/13 09:17:34;;;;;;;2.33;1.05;;;;;;;16.78;45.47;98252.41;5015255;28;20503;-61
2022/05/13 09:20:13;;;;;;;2.80;1.48;;;;;;;16.88;45.15;98251.66;5028932;28;20444;-61
2022/05/13 09:22:49;;;;;;;4.20;1.20;;;;;;;16.98;46.02;98248.41;5035059;28;20092;-62
2022/05/13 09:25:21;;;;;;;5.78;1.40;;;;;;;16.47;46.11;98210.13;5015109;28;20030;-61
2022/05/13 09:27:50;;;;;;;5.45;1.27;;;;;;;16.62;45.55;98256.09;5026285;28;20029;-61
2022/05/13 09:30:22;;;;;;;2.05;1.08;;;;;;;16.37;45.58;98207.31;5013406;28;20072;-61
2022/05/13 09:32:48;;;;;;;2.58;1.20;;;;;;;16.84;43.92;98255.41;5023052;28;20033;-62
2022/05/13 09:35:40;;;;;;;3.40;0.90;;;;;;;16.90;45.15;98249.81;5038188;28;20033;-61
2022/05/13 09:38:16;;;;;;;4.77;1.33;;;;;;;16.66;44.32;98249.72;5048023;28;20017;-61
2022/05/13 09:40:42;;;;;;;1.17;1.00;;;;;;;16.84;45.48;98254.59;5014664;28;20113;-61
2022/05/13 09:43:10;;;;;;;3.45;1.02;;;;;;;16.87;45.00;98251.75;5014651;28;20417;-60
2022/05/13 09:45:35;;;;;;;6.60;1.20;;;;;;;16.82;43.68;98261.72;5043614;28;20033;-61
2022/05/13 09:48:04;;;;;;;3.92;1.23;;;;;;;16.91;44.97;98258.47;5016430;28;20104;-62
2022/05/13 09:50:33;;;;;;;5.80;1.38;;;;;;;16.80;43.13;98260.97;5033682;28;20128;-60
2022/05/13 09:53:06;;;;;;;4.80;1.10;;;;;;;16.69;43.63;98259.94;5016874;28;20025;-60
2022/05/13 09:55:39;;;;;;;2.58;0.95;;;;;;;16.51;43.95;98258.63;5032615;28;20489;-61
2022/05/13 09:58:10;;;;;;;1.40;0.70;;;;;;;16.68;43.18;98265.28;5015322;28;20033;-61
2022/05/13 10:00:39;;;;;;;5.97;1.02;;;;;;;16.35;43.30;98224.88;5014057;28;20424;-62
2022/05/13 10:03:18;;;;;;;3.88;0.95;;;;;;;16.45;43.28;98217.25;5024249;28;20094;-60
2022/05/13 10:05:44;;;;;;;4.63;1.48;;;;;;;16.79;44.32;98269.75;5033995;28;20033;-61
2022/05/13 10:08:16;;;;;;;5.10;1.30;;;;;;;16.39;44.32;98218.50;5036516;28;20463;-60
2022/05/13 10:14:03;;;;;;;1.33;0.80;;;;;;;16.58;44.28;98272.09;5036197;28;20462;-61
2022/05/13 10:16:37;;;;;;;2.35;1.00;;;;;;;16.74;44.49;98272.69;5014188;28;20034;-61
2022/05/13 10:19:13;;;;;;;5.03;1.00;;;;;;;16.50;43.56;98225.56;5032060;28;20376;-61
2022/05/13 10:21:45;;;;;;;3.67;0.80;;;;;;;16.52;42.39;98273.38;5001622;28;20034;-60
2022/05/13 10:24:16;;;;;;;;;;;;;;;16.73;42.83;98279.72;5017283;28;20171;-60
2022/05/13 10:26:45;;;;;;;4.18;1.40;;;;;;;17.17;42.70;98289.78;5040659;28;19909;-61
2022/05/13 10:29:19;;;;;;;4.35;0.80;;;;;;;17.50;43.17;98257.75;5013876;28;20026;-60
2022/05/13 10:31:46;;;;;;;2.60;1.23;;;;;;;17.77;42.14;98259.25;5013297;28;20030;-62
2022/05/13 10:34:33;;;;;;;4.22;1.40;;;;;;;17.16;41.28;98215.72;5013647;28;20025;-61
2022/05/13 10:37:01;;;;;;;2.70;1.10;;;;;;;17.36;41.93;98274.44;5048346;28;20378;-62
2022/05/13 10:39:45;;;;;;;5.75;1.10;;;;;;;17.31;41.79;98271.31;5053364;28;20033;-60
2022/05/13 10:42:34;;;;;;;2.03;0.90;;;;;;;17.32;44.19;98261.69;5053143;28;20533;-62
2022/05/13 10:45:19;;;;;;;4.53;1.30;;;;;;;17.26;41.55;98270.84;5053444;28;20041;-62
2022/05/13 10:47:53;;;;;;;6.28;1.15;;;;;;;16.78;42.50;98200.13;5053176;28;20029;-61
2022/05/13 10:50:23;;;;;;;3.45;0.90;;;;;;;17.17;40.76;98240.09;5045678;28;20022;-61
2022/05/13 10:53:11;;;;;;;5.13;1.20;;;;;;;17.30;41.45;98253.97;4995818;28;20092;-61
2022/05/13 10:56:21;;;;;;;0.95;0.85;;;;;;;17.53;41.89;98247.03;5033168;28;20071;-61
2022/05/13 10:59:07;;;;;;;3.63;0.98;;;;;;;17.64;39.89;98230.53;4964604;28;20512;-61
2022/05/13 11:02:10;;;;;;;2.28;0.82;;;;;;;17.52;40.21;98240.13;5009323;28;20828;-60
2022/05/13 11:04:53;;;;;;;;;;;;;;;17.62;41.45;98244.72;5013933;28;20363;-61
2022/05/13 11:07:34;;;;;;;7.90;1.30;;;;;;;17.34;40.44;98250.16;5033092;28;19913;-62
2022/05/13 11:10:37;;;;;;;3.92;1.35;;;;;;;17.31;41.58;98232.06;5023617;28;20129;-61
2022/05/13 11:13:11;;;;;;;3.10;1.20;;;;;;;17.29;40.14;98240.97;5032950;28;20034;-60
2022/05/13 11:16:00;;;;;;;4.13;1.08;;;;;;;17.50;40.59;98249.03;5035069;28;20029;-61
2022/05/13 11:18:42;;;;;;;4.10;1.00;;;;;;;17.91;41.00;98242.53;4995690;28;20033;-61
2022/05/13 11:21:07;;;;;;;9.02;1.23;;;;;;;17.86;39.36;98245.50;5012837;28;20497;-60
2022/05/13 11:25:54;;;;;;;3.22;0.88;;;;;;;17.98;39.45;98251.63;5037904;28;20112;-61
2022/05/13 11:26:44;;;;;;;3.40;0.88;;;;;;;18.03;39.59;98246.06;5020384;28;20042;-61
2022/05/13 11:29:16;;;;;;;3.72;0.85;;;;;;;17.68;39.91;98197.13;5034579;28;20025;-61
2022/05/13 11:32:01;;;;;;;2.60;0.90;;;;;;;17.57;40.10;98193.50;5045616;28;20032;-61
2022/05/13 11:35:08;;;;;;;2.67;0.93;;;;;;;18.03;39.64;98253.91;5012952;28;20030;-61
2022/05/13 11:37:38;;;;;;;3.38;1.00;;;;;;;17.90;39.89;98253.94;5010499;28;20049;-61
2022/05/13 11:40:40;;;;;;;1.13;0.80;;;;;;;17.93;40.50;98225.78;5014853;28;20105;-62
2022/05/13 11:43:32;;;;;;;4.13;0.80;;;;;;;17.90;39.46;98230.34;5048135;28;20036;-62
2022/05/13 11:46:01;;;;;;;2.20;0.77;;;;;;;17.98;40.25;98222.78;5026884;28;20036;-62
2022/05/13 11:48:34;;;;;;;3.80;0.80;;;;;;;17.74;39.18;98166.06;5023447;28;20080;-62
2022/05/13 11:51:31;;;;;;;0.98;0.70;;;;;;;18.26;39.41;98225.94;5031621;28;20017;-62
2022/05/13 11:53:59;;;;;;;4.57;1.00;;;;;;;18.29;40.17;98229.16;5031926;28;20075;-62
2022/05/13 11:56:29;;;;;;;3.40;0.70;;;;;;;18.14;38.91;98229.50;5032275;28;20029;-61
2022/05/13 11:59:31;;;;;;;1.88;1.20;;;;;;;17.92;40.83;98181.34;5032330;28;20434;-61
2022/05/13 12:02:14;;;;;;;2.08;0.80;;;;;;;17.69;40.46;98197.00;5032182;28;20051;-61
2022/05/13 12:05:08;;;;;;;3.92;0.93;;;;;;;17.75;40.90;98246.28;5032348;28;20059;-61
2022/05/13 12:08:08;;;;;;;7.15;1.30;;;;;;;17.72;39.64;98240.44;5014194;28;20458;-61
2022/05/13 12:10:42;;;;;;;4.43;1.10;;;;;;;17.49;43.19;98260.47;5012348;28;20057;-61
2022/05/13 12:13:25;;;;;;;1.98;0.98;;;;;;;16.81;45.66;98205.13;5048096;28;20052;-60